Time;durP1;ratioP1;P1;durP2;ratioP2;P2;SDS_P1;SDS_P2;PMS_P1;PMS_P2;Temp;Humidity;BMP_temperature;BMP_pressure;BME280_temperature;BME280_humidity;BME280_pressure;Samples;Min_cycle;Max_cycle;Signal;HPM_P1;HPM_P2
2023/04/29 00:01:42;;;;;;;;;;;12.40;88.80;;;;;;5091285;28;19928;-62
2023/04/29 00:04:09;;;;;;;;;;;12.40;88.80;;;;;;5088080;28;19934;-62
2023/04/29 00:06:37;;;;;;;;;;;12.50;88.70;;;;;;5089268;28;19931;-62
2023/04/29 00:09:04;;;;;;;;;;;12.40;88.60;;;;;;5088014;28;19944;-63
2023/04/29 00:11:31;;;;;;;;;;;12.40;88.70;;;;;;5090308;28;19931;-63
2023/04/29 00:13:57;;;;;;;;;;;12.40;88.80;;;;;;5090080;28;19931;-63
2023/04/29 00:16:24;;;;;;;;;;;12.40;88.80;;;;;;5087324;28;19959;-64
2023/04/29 00:18:51;;;;;;;;;;;12.40;88.80;;;;;;5091029;28;19928;-62
2023/04/29 00:21:18;;;;;;;;;;;12.40;88.70;;;;;;5090723;28;20432;-62
2023/04/29 00:23:46;;;;;;;;;;;12.30;88.90;;;;;;5081885;28;19925;-61
2023/04/29 00:26:13;;;;;;;;;;;12.20;89.10;;;;;;5086349;28;19943;-62
2023/04/29 00:28:44;;;;;;;;;;;12.20;89.20;;;;;;5070408;28;19973;-62
2023/04/29 00:31:11;;;;;;;;;;;12.20;89.20;;;;;;5090687;28;19924;-61
2023/04/29 00:33:39;;;;;;;;;;;12.20;89.30;;;;;;5087443;28;19951;-63
2023/04/29 00:36:06;;;;;;;;;;;12.20;89.40;;;;;;5068904;28;19924;-61
2023/04/29 00:38:33;;;;;;;;;;;12.10;89.50;;;;;;5092832;28;20059;-59
2023/04/29 00:41:02;;;;;;;;;;;12.10;89.50;;;;;;5075105;28;19946;-60
2023/04/29 00:43:29;;;;;;;;;;;12.10;89.40;;;;;;5089975;28;19979;-62
2023/04/29 00:45:56;;;;;;;;;;;12.10;89.30;;;;;;5093519;28;19924;-62
2023/04/29 00:48:23;;;;;;;;;;;12.20;89.20;;;;;;5089829;28;19932;-62
2023/04/29 00:50:50;;;;;;;;;;;12.20;89.10;;;;;;5088476;28;20564;-61
2023/04/29 00:53:17;;;;;;;;;;;12.20;89.20;;;;;;5093732;28;19924;-62
2023/04/29 00:55:46;;;;;;;;;;;12.20;89.30;;;;;;5084792;28;20367;-61
2023/04/29 00:58:16;;;;;;;;;;;12.20;89.40;;;;;;5089458;28;19931;-61
2023/04/29 01:00:43;;;;;;;;;;;12.20;89.30;;;;;;5091377;28;19952;-63
2023/04/29 01:03:10;;;;;;;;;;;12.20;89.10;;;;;;5093356;28;19932;-61
2023/04/29 01:05:40;;;;;;;;;;;12.20;88.90;;;;;;5092528;28;19932;-62
2023/04/29 01:08:17;;;;;;;;;;;12.10;88.90;;;;;;5073223;28;19924;-62
2023/04/29 01:10:50;;;;;;;;;;;12.20;88.70;;;;;;5093924;28;20424;-64
2023/04/29 01:13:25;;;;;;;;;;;12.20;88.60;;;;;;5093358;28;19924;-62
2023/04/29 01:15:57;;;;;;;;;;;12.10;88.80;;;;;;5071114;28;19928;-61
2023/04/29 01:18:30;;;;;;;;;;;12.10;88.90;;;;;;5091361;28;19947;-61
2023/04/29 01:20:57;;;;;;;;;;;12.10;88.90;;;;;;5076295;28;19931;-66
2023/04/29 01:23:27;;;;;;;;;;;12.00;89.20;;;;;;5075331;28;19978;-63
2023/04/29 01:25:55;;;;;;;;;;;12.00;89.10;;;;;;5091782;28;19977;-61
2023/04/29 01:28:44;;;;;;;;;;;12.00;89.00;;;;;;5089855;28;20001;-63
2023/04/29 01:31:15;;;;;;;;;;;12.10;88.90;;;;;;5091386;28;19997;-63
2023/04/29 01:33:49;;;;;;;;;;;12.10;88.70;;;;;;5074429;28;19987;-64
2023/04/29 01:36:22;;;;;;;;;;;12.00;88.80;;;;;;5076157;28;19924;-62
2023/04/29 01:38:57;;;;;;;;;;;12.00;88.90;;;;;;5070454;28;19939;-62
2023/04/29 01:41:31;;;;;;;;;;;12.00;88.80;;;;;;5070109;28;19935;-61
2023/04/29 01:44:08;;;;;;;;;;;12.00;88.90;;;;;;5070167;28;19951;-61
2023/04/29 01:46:35;;;;;;;;;;;12.00;88.90;;;;;;5069841;28;20477;-62
2023/04/29 01:49:02;;;;;;;;;;;12.00;88.90;;;;;;5072974;28;20011;-62
2023/04/29 01:51:29;;;;;;;;;;;12.00;88.90;;;;;;5074130;28;19967;-62
2023/04/29 01:53:57;;;;;;;;;;;12.00;88.80;;;;;;5070347;28;19927;-62
2023/04/29 01:56:25;;;;;;;;;;;12.00;88.90;;;;;;5089760;28;19928;-63
2023/04/29 01:59:06;;;;;;;;;;;12.00;88.90;;;;;;5089497;28;20030;-63
2023/04/29 02:01:33;;;;;;;;;;;11.90;88.90;;;;;;5088544;28;19932;-62
2023/04/29 02:04:00;;;;;;;;;;;11.90;89.00;;;;;;5073571;28;19929;-63
2023/04/29 02:06:27;;;;;;;;;;;11.90;88.90;;;;;;5073450;28;19974;-62
2023/04/29 02:08:59;;;;;;;;;;;11.90;88.90;;;;;;5068776;28;19932;-62
2023/04/29 02:11:26;;;;;;;;;;;11.90;89.00;;;;;;5072053;28;19924;-62
2023/04/29 02:13:56;;;;;;;;;;;11.90;89.00;;;;;;5071274;28;19947;-62
2023/04/29 02:16:23;;;;;;;;;;;11.90;88.80;;;;;;5090244;28;19958;-61
2023/04/29 02:18:57;;;;;;;;;;;11.90;88.80;;;;;;5072868;28;19931;-62
2023/04/29 02:21:24;;;;;;;;;;;11.90;88.80;;;;;;5090990;28;19924;-62
2023/04/29 02:23:53;;;;;;;;;;;11.90;88.90;;;;;;5089741;28;19932;-62
2023/04/29 02:26:24;;;;;;;;;;;11.90;88.80;;;;;;5089757;28;19970;-62
2023/04/29 02:28:51;;;;;;;;;;;11.80;88.90;;;;;;5063776;28;19932;-61
2023/04/29 02:31:18;;;;;;;;;;;11.80;88.90;;;;;;5072594;28;19924;-61
2023/04/29 02:33:47;;;;;;;;;;;11.80;89.00;;;;;;5070515;28;19928;-62
2023/04/29 02:36:14;;;;;;;;;;;11.70;89.10;;;;;;5091272;28;19931;-60
2023/04/29 02:38:43;;;;;;;;;;;11.80;89.00;;;;;;5068844;28;19929;-61
2023/04/29 02:41:10;;;;;;;;;;;11.70;89.00;;;;;;5070361;28;20011;-60
2023/04/29 02:43:38;;;;;;;;;;;11.70;89.00;;;;;;5086383;28;20679;-60
2023/04/29 02:46:05;;;;;;;;;;;11.80;89.00;;;;;;5068452;28;20023;-62
2023/04/29 02:48:32;;;;;;;;;;;11.70;89.10;;;;;;5088312;28;19931;-62
2023/04/29 02:50:59;;;;;;;;;;;11.80;89.00;;;;;;5089197;28;19924;-63
2023/04/29 02:53:26;;;;;;;;;;;11.80;89.10;;;;;;5090157;28;19924;-61
2023/04/29 02:55:53;;;;;;;;;;;11.80;89.10;;;;;;5089662;28;19989;-61
2023/04/29 02:58:21;;;;;;;;;;;11.80;89.10;;;;;;5065523;28;22871;-61
2023/04/29 03:00:50;;;;;;;;;;;11.80;89.10;;;;;;5072646;28;20070;-62
2023/04/29 03:03:17;;;;;;;;;;;11.80;89.10;;;;;;5070333;28;19928;-63
2023/04/29 03:05:44;;;;;;;;;;;11.80;89.20;;;;;;5091018;28;19970;-61
2023/04/29 03:08:11;;;;;;;;;;;11.80;89.20;;;;;;5069178;28;19928;-62
2023/04/29 03:10:38;;;;;;;;;;;11.80;89.10;;;;;;5072027;28;19970;-62
2023/04/29 03:13:05;;;;;;;;;;;11.70;89.20;;;;;;5070250;28;19928;-62
2023/04/29 03:15:33;;;;;;;;;;;11.70;89.30;;;;;;5086382;28;19928;-62
2023/04/29 03:18:03;;;;;;;;;;;11.70;89.30;;;;;;5067140;28;20318;-62
2023/04/29 03:20:31;;;;;;;;;;;11.70;89.30;;;;;;5071685;28;19932;-61
2023/04/29 03:23:01;;;;;;;;;;;11.70;89.30;;;;;;5072076;28;20426;-62
2023/04/29 03:25:29;;;;;;;;;;;11.70;89.30;;;;;;5069406;28;20031;-63
2023/04/29 03:27:56;;;;;;;;;;;11.70;89.40;;;;;;5069387;28;20367;-62
2023/04/29 03:30:23;;;;;;;;;;;11.70;89.50;;;;;;5087714;28;19928;-62
2023/04/29 03:32:52;;;;;;;;;;;11.70;89.50;;;;;;5084595;28;19931;-62
2023/04/29 03:35:21;;;;;;;;;;;11.70;89.50;;;;;;5087525;28;19932;-62
2023/04/29 03:38:14;;;;;;;;;;;11.70;89.70;;;;;;5072584;28;20062;-62
2023/04/29 03:40:41;;;;;;;;;;;11.70;89.80;;;;;;5069583;28;19951;-60
2023/04/29 03:43:08;;;;;;;;;;;11.60;89.80;;;;;;5087101;28;19924;-61
2023/04/29 03:45:36;;;;;;;;;;;11.70;89.80;;;;;;5069468;28;20023;-62
2023/04/29 03:48:03;;;;;;;;;;;11.70;89.70;;;;;;5069870;28;19932;-62
2023/04/29 03:50:32;;;;;;;;;;;11.70;89.70;;;;;;5071603;28;20036;-62
2023/04/29 03:52:59;;;;;;;;;;;11.70;89.50;;;;;;5070448;28;19932;-62
2023/04/29 03:55:26;;;;;;;;;;;11.80;89.50;;;;;;5071342;28;20386;-62
2023/04/29 03:57:53;;;;;;;;;;;11.70;89.50;;;;;;5089733;28;20027;-62
2023/04/29 04:00:19;;;;;;;;;;;11.80;89.50;;;;;;5070488;28;19928;-62
2023/04/29 04:02:52;;;;;;;;;;;11.80;89.50;;;;;;5071453;28;19934;-62
2023/04/29 04:05:24;;;;;;;;;;;11.80;89.40;;;;;;5071903;28;20302;-62
2023/04/29 04:08:05;;;;;;;;;;;11.70;89.60;;;;;;5084918;28;20348;-64
2023/04/29 04:10:44;;;;;;;;;;;11.80;89.60;;;;;;5084521;28;20020;-62
2023/04/29 04:13:24;;;;;;;;;;;11.80;89.50;;;;;;5085612;28;20362;-62
2023/04/29 04:15:50;;;;;;;;;;;11.80;89.50;;;;;;5066141;28;19973;-61
2023/04/29 04:18:17;;;;;;;;;;;11.80;89.40;;;;;;5071963;28;19932;-60
2023/04/29 04:20:45;;;;;;;;;;;11.80;89.50;;;;;;5070588;28;19931;-61
2023/04/29 04:23:13;;;;;;;;;;;11.80;89.60;;;;;;5068399;28;20402;-61
2023/04/29 04:25:45;;;;;;;;;;;11.70;89.70;;;;;;5068096;28;19939;-62
2023/04/29 04:28:31;;;;;;;;;;;11.80;89.70;;;;;;5084999;28;20287;-62
2023/04/29 04:31:04;;;;;;;;;;;11.80;89.60;;;;;;5067200;28;20378;-61
2023/04/29 04:33:31;;;;;;;;;;;11.90;89.50;;;;;;5068535;28;20029;-63
2023/04/29 04:35:58;;;;;;;;;;;11.90;89.30;;;;;;5069565;28;19924;-61
2023/04/29 04:38:27;;;;;;;;;;;11.90;88.80;;;;;;5085185;28;19954;-61
2023/04/29 04:40:54;;;;;;;;;;;11.90;89.20;;;;;;5086824;28;20026;-59
2023/04/29 04:43:36;;;;;;;;;;;11.90;89.20;;;;;;5069274;28;20061;-62
2023/04/29 04:46:09;;;;;;;;;;;12.00;89.00;;;;;;5065327;28;19943;-62
2023/04/29 04:48:38;;;;;;;;;;;12.00;88.90;;;;;;5068641;28;20011;-62
2023/04/29 04:51:07;;;;;;;;;;;12.00;88.80;;;;;;5067640;28;19932;-62
2023/04/29 04:53:36;;;;;;;;;;;12.00;88.80;;;;;;5068597;28;19932;-62
2023/04/29 04:56:08;;;;;;;;;;;12.00;89.30;;;;;;5069775;28;19935;-62
2023/04/29 04:58:36;;;;;;;;;;;12.00;89.10;;;;;;5088630;28;19943;-62
2023/04/29 05:01:04;;;;;;;;;;;12.00;88.80;;;;;;5068267;28;20013;-61
2023/04/29 05:03:31;;;;;;;;;;;12.00;88.90;;;;;;5085527;28;20010;-62
2023/04/29 05:05:59;;;;;;;;;;;12.00;89.10;;;;;;5070549;28;19931;-61
2023/04/29 05:08:26;;;;;;;;;;;12.00;89.00;;;;;;5086447;28;20260;-61
2023/04/29 05:10:57;;;;;;;;;;;12.00;88.70;;;;;;5068611;28;19928;-62
2023/04/29 05:13:25;;;;;;;;;;;12.00;88.90;;;;;;5067755;28;20301;-60
2023/04/29 05:15:51;;;;;;;;;;;12.00;88.60;;;;;;5068865;28;19935;-62
2023/04/29 05:18:22;;;;;;;;;;;12.10;88.30;;;;;;5070523;28;20005;-62
2023/04/29 05:20:51;;;;;;;;;;;12.10;88.30;;;;;;5069680;28;20029;-61
2023/04/29 05:23:18;;;;;;;;;;;12.10;88.30;;;;;;5069227;28;19963;-62
2023/04/29 05:25:46;;;;;;;;;;;12.10;88.00;;;;;;5070361;28;19953;-62
2023/04/29 05:28:15;;;;;;;;;;;12.10;87.90;;;;;;5064249;28;19928;-62
2023/04/29 05:30:42;;;;;;;;;;;12.10;88.00;;;;;;5090876;28;20023;-61
2023/04/29 05:33:10;;;;;;;;;;;12.10;88.10;;;;;;5089985;28;19928;-61
2023/04/29 05:35:37;;;;;;;;;;;12.10;88.00;;;;;;5070247;28;19924;-62
2023/04/29 05:38:03;;;;;;;;;;;12.00;87.90;;;;;;5071121;28;19928;-61
2023/04/29 05:40:39;;;;;;;;;;;12.00;87.50;;;;;;5085506;28;19935;-63
2023/04/29 05:43:52;;;;;;;;;;;12.00;87.20;;;;;;5085718;28;19939;-62
2023/04/29 05:46:22;;;;;;;;;;;11.90;87.40;;;;;;5081759;28;20015;-63
2023/04/29 05:48:49;;;;;;;;;;;11.90;87.30;;;;;;5091631;28;19931;-61
2023/04/29 05:51:16;;;;;;;;;;;11.90;87.20;;;;;;5086047;28;19928;-61
2023/04/29 05:53:43;;;;;;;;;;;11.90;87.40;;;;;;5089979;28;20092;-61
2023/04/29 05:56:13;;;;;;;;;;;11.90;87.40;;;;;;5089160;28;19995;-62
2023/04/29 05:58:40;;;;;;;;;;;12.00;87.40;;;;;;5071690;28;19928;-62
2023/04/29 06:01:07;;;;;;;;;;;11.90;87.50;;;;;;5086679;28;20028;-64
2023/04/29 06:03:36;;;;;;;;;;;11.90;87.50;;;;;;5089712;28;19928;-61
2023/04/29 06:06:25;;;;;;;;;;;11.90;87.60;;;;;;5092656;28;19943;-62
2023/04/29 06:09:06;;;;;;;;;;;12.00;87.70;;;;;;5087169;28;19928;-60
2023/04/29 06:11:34;;;;;;;;;;;12.00;87.60;;;;;;5082812;28;19982;-62
2023/04/29 06:14:02;;;;;;;;;;;12.00;87.70;;;;;;5066844;28;19936;-61
2023/04/29 06:16:29;;;;;;;;;;;12.00;87.80;;;;;;5071089;28;19928;-62
2023/04/29 06:18:57;;;;;;;;;;;12.00;87.40;;;;;;5070731;28;19938;-61
2023/04/29 06:21:24;;;;;;;;;;;12.10;87.50;;;;;;5071474;28;19939;-63
2023/04/29 06:23:51;;;;;;;;;;;12.10;87.50;;;;;;5068445;28;19927;-58
2023/04/29 06:26:27;;;;;;;;;;;12.20;87.50;;;;;;5070815;28;19929;-62
2023/04/29 06:28:54;;;;;;;;;;;12.20;87.20;;;;;;5087929;28;19928;-62
2023/04/29 06:31:21;;;;;;;;;;;12.30;86.90;;;;;;5067646;28;19938;-62
2023/04/29 06:33:48;;;;;;;;;;;12.30;87.10;;;;;;5069372;28;19924;-62
2023/04/29 06:36:19;;;;;;;;;;;12.40;86.70;;;;;;5071007;28;19927;-62
2023/04/29 06:39:03;;;;;;;;;;;12.40;87.00;;;;;;5071229;28;20018;-62
2023/04/29 06:41:59;;;;;;;;;;;12.50;86.20;;;;;;5035349;28;20392;-62
2023/04/29 06:44:44;;;;;;;;;;;12.50;86.60;;;;;;5088406;28;19935;-61
2023/04/29 06:47:31;;;;;;;;;;;12.60;86.40;;;;;;5087548;28;19932;-61
2023/04/29 06:50:08;;;;;;;;;;;12.60;86.30;;;;;;5069359;28;20415;-61
2023/04/29 06:52:36;;;;;;;;;;;12.60;86.20;;;;;;5086612;28;20400;-62
2023/04/29 06:55:04;;;;;;;;;;;12.70;86.20;;;;;;5083204;28;19947;-61
2023/04/29 06:57:35;;;;;;;;;;;12.70;86.10;;;;;;5083669;28;20008;-61
2023/04/29 07:00:03;;;;;;;;;;;12.80;85.80;;;;;;5087592;28;20382;-64
2023/04/29 07:02:31;;;;;;;;;;;12.80;85.70;;;;;;5067971;28;20599;-63
2023/04/29 07:04:58;;;;;;;;;;;12.80;85.00;;;;;;5088832;28;19936;-62
2023/04/29 07:07:25;;;;;;;;;;;12.80;85.30;;;;;;5069421;28;20336;-62
2023/04/29 07:09:54;;;;;;;;;;;12.80;85.20;;;;;;5086065;28;19938;-62
2023/04/29 07:12:20;;;;;;;;;;;12.80;84.80;;;;;;5070619;28;19959;-61
2023/04/29 07:14:50;;;;;;;;;;;12.80;84.70;;;;;;5086417;28;20024;-62
2023/04/29 07:17:19;;;;;;;;;;;12.70;84.80;;;;;;5087034;28;20787;-61
2023/04/29 07:19:54;;;;;;;;;;;12.70;84.80;;;;;;5074941;28;19931;-62
2023/04/29 07:22:21;;;;;;;;;;;12.70;84.40;;;;;;5090928;28;19935;-62
2023/04/29 07:24:48;;;;;;;;;;;12.70;84.50;;;;;;5069273;28;19939;-62
2023/04/29 07:27:16;;;;;;;;;;;12.70;84.50;;;;;;5087688;28;19932;-62
2023/04/29 07:29:43;;;;;;;;;;;12.70;84.50;;;;;;5087684;28;19985;-62
2023/04/29 07:32:10;;;;;;;;;;;12.80;84.60;;;;;;5067806;28;19935;-63
2023/04/29 07:34:38;;;;;;;;;;;12.80;84.40;;;;;;5065918;28;19932;-62
2023/04/29 07:37:04;;;;;;;;;;;12.80;84.40;;;;;;5086803;28;20050;-62
2023/04/29 07:39:31;;;;;;;;;;;12.80;84.30;;;;;;5065229;28;20299;-62
2023/04/29 07:41:59;;;;;;;;;;;12.70;84.30;;;;;;5085519;28;19928;-63
2023/04/29 07:44:28;;;;;;;;;;;12.80;84.30;;;;;;5089215;28;19931;-61
2023/04/29 07:46:54;;;;;;;;;;;12.80;84.40;;;;;;5066954;28;20302;-62
2023/04/29 07:49:21;;;;;;;;;;;12.80;84.20;;;;;;5067592;28;19950;-63
2023/04/29 07:51:48;;;;;;;;;;;12.80;84.10;;;;;;5089381;28;20012;-63
2023/04/29 07:54:35;;;;;;;;;;;12.80;84.10;;;;;;5085253;28;19924;-63
2023/04/29 07:57:03;;;;;;;;;;;12.80;84.20;;;;;;5071899;28;20762;-63
2023/04/29 07:59:31;;;;;;;;;;;12.90;84.10;;;;;;5064733;28;19932;-62
2023/04/29 08:02:02;;;;;;;;;;;12.90;84.10;;;;;;5064699;28;19973;-62
2023/04/29 08:04:29;;;;;;;;;;;13.00;83.90;;;;;;5084075;28;19931;-62
2023/04/29 08:07:01;;;;;;;;;;;13.00;83.50;;;;;;5084827;28;19935;-62
2023/04/29 08:09:28;;;;;;;;;;;13.10;83.40;;;;;;5067569;28;19932;-63
2023/04/29 08:11:58;;;;;;;;;;;13.10;83.40;;;;;;5089303;28;19925;-63
2023/04/29 08:14:25;;;;;;;;;;;13.00;83.30;;;;;;5068231;28;20025;-62
2023/04/29 08:16:55;;;;;;;;;;;13.10;83.00;;;;;;5086760;28;19928;-62
2023/04/29 08:19:22;;;;;;;;;;;13.10;83.00;;;;;;5068805;28;19932;-62
2023/04/29 08:21:50;;;;;;;;;;;13.10;82.90;;;;;;5068750;28;19924;-62
2023/04/29 08:24:17;;;;;;;;;;;13.20;83.00;;;;;;5090721;28;19985;-62
2023/04/29 08:26:44;;;;;;;;;;;13.20;82.90;;;;;;5089127;28;19935;-60
2023/04/29 08:29:11;;;;;;;;;;;13.20;82.70;;;;;;5090836;28;20394;-62
2023/04/29 08:31:38;;;;;;;;;;;13.20;82.70;;;;;;5086592;28;19931;-63
2023/04/29 08:34:06;;;;;;;;;;;13.20;82.70;;;;;;5087736;28;20458;-62
2023/04/29 08:36:33;;;;;;;;;;;13.20;82.70;;;;;;5083264;28;19955;-63
2023/04/29 08:39:00;;;;;;;;;;;13.20;83.00;;;;;;5089024;28;20027;-63
2023/04/29 08:41:31;;;;;;;;;;;13.30;82.80;;;;;;5086359;28;19931;-62
2023/04/29 08:43:59;;;;;;;;;;;13.20;82.80;;;;;;5088865;28;19925;-62
2023/04/29 08:46:29;;;;;;;;;;;13.30;83.00;;;;;;5084308;28;19924;-62
2023/04/29 08:48:59;;;;;;;;;;;13.30;83.00;;;;;;5087627;28;19935;-63
2023/04/29 08:51:27;;;;;;;;;;;13.30;82.90;;;;;;5089417;28;19928;-63
2023/04/29 08:53:54;;;;;;;;;;;13.40;82.70;;;;;;5087487;28;19932;-62
2023/04/29 08:56:37;;;;;;;;;;;13.30;82.80;;;;;;5089706;28;19924;-62
2023/04/29 08:59:13;;;;;;;;;;;13.40;82.80;;;;;;5090506;28;19928;-63
2023/04/29 09:01:49;;;;;;;;;;;13.40;82.80;;;;;;5090845;28;19932;-63
2023/04/29 09:04:21;;;;;;;;;;;13.40;82.70;;;;;;5087340;28;19940;-63
2023/04/29 09:07:01;;;;;;;;;;;13.40;82.70;;;;;;5091790;28;19932;-62
2023/04/29 09:09:31;;;;;;;;;;;13.50;82.70;;;;;;5091844;28;19977;-61
2023/04/29 09:11:59;;;;;;;;;;;13.60;82.70;;;;;;5089951;28;19932;-61
2023/04/29 09:14:33;;;;;;;;;;;13.60;82.10;;;;;;5090219;28;20312;-62
2023/04/29 09:17:00;;;;;;;;;;;13.60;81.90;;;;;;5091831;28;19934;-63
2023/04/29 09:19:29;;;;;;;;;;;13.60;82.10;;;;;;5074047;28;19931;-62
2023/04/29 09:21:56;;;;;;;;;;;13.60;82.00;;;;;;5087742;28;19932;-63
2023/04/29 09:24:28;;;;;;;;;;;13.60;82.00;;;;;;5090900;28;20302;-62
2023/04/29 09:26:57;;;;;;;;;;;13.60;82.30;;;;;;5092450;28;19924;-61
2023/04/29 09:29:24;;;;;;;;;;;13.60;82.10;;;;;;5092086;28;20339;-63
2023/04/29 09:31:52;;;;;;;;;;;13.60;81.80;;;;;;5088528;28;19925;-61
2023/04/29 09:34:30;;;;;;;;;;;13.70;82.10;;;;;;5092985;28;20444;-62
2023/04/29 09:36:58;;;;;;;;;;;13.60;81.90;;;;;;5091498;28;20022;-61
2023/04/29 09:39:25;;;;;;;;;;;13.70;82.00;;;;;;5085088;28;20039;-61
2023/04/29 09:42:02;;;;;;;;;;;13.70;81.90;;;;;;5092165;28;19928;-62
2023/04/29 09:44:30;;;;;;;;;;;13.70;81.70;;;;;;5091046;28;19928;-62
2023/04/29 09:47:01;;;;;;;;;;;13.80;81.60;;;;;;5088305;28;19938;-62
2023/04/29 09:49:28;;;;;;;;;;;13.90;81.80;;;;;;5090053;28;20010;-62
2023/04/29 09:51:56;;;;;;;;;;;14.10;81.60;;;;;;5089538;28;19931;-63
2023/04/29 09:54:23;;;;;;;;;;;14.20;81.20;;;;;;5087619;28;19951;-62
2023/04/29 09:57:05;;;;;;;;;;;14.40;81.00;;;;;;5084789;28;19928;-63
2023/04/29 09:59:34;;;;;;;;;;;14.50;80.50;;;;;;5093570;28;20359;-63
2023/04/29 10:02:03;;;;;;;;;;;14.60;80.10;;;;;;5089228;28;20387;-62
2023/04/29 10:04:40;;;;;;;;;;;14.60;80.10;;;;;;5090839;28;19924;-62
2023/04/29 10:07:22;;;;;;;;;;;14.70;80.10;;;;;;5088562;28;19931;-62
2023/04/29 10:09:49;;;;;;;;;;;14.70;79.80;;;;;;5085408;28;20444;-61
2023/04/29 10:12:18;;;;;;;;;;;14.60;79.90;;;;;;5088242;28;19934;-60
2023/04/29 10:14:47;;;;;;;;;;;14.60;79.70;;;;;;5086042;28;19934;-61
2023/04/29 10:17:16;;;;;;;;;;;14.50;79.60;;;;;;5091480;28;19939;-62
2023/04/29 10:19:47;;;;;;;;;;;14.40;79.60;;;;;;5091265;28;19924;-60
2023/04/29 10:22:19;;;;;;;;;;;14.30;79.70;;;;;;5090810;28;19928;-63
2023/04/29 10:24:46;;;;;;;;;;;14.30;80.00;;;;;;5081439;28;19931;-62
2023/04/29 10:27:14;;;;;;;;;;;14.40;79.50;;;;;;5090011;28;19939;-61
2023/04/29 10:29:43;;;;;;;;;;;14.40;79.60;;;;;;5089562;28;20370;-62
2023/04/29 10:32:11;;;;;;;;;;;14.40;78.80;;;;;;5089261;28;19928;-62
2023/04/29 10:34:39;;;;;;;;;;;14.40;78.70;;;;;;5092912;28;19931;-61
2023/04/29 10:37:06;;;;;;;;;;;14.40;78.80;;;;;;5087739;28;20389;-61
2023/04/29 10:39:39;;;;;;;;;;;14.50;78.70;;;;;;5091316;28;19924;-61
2023/04/29 10:42:15;;;;;;;;;;;14.60;78.40;;;;;;5091349;28;19936;-61
2023/04/29 10:44:57;;;;;;;;;;;14.60;78.20;;;;;;5092340;28;19924;-61
2023/04/29 10:47:25;;;;;;;;;;;14.60;78.10;;;;;;5091514;28;20481;-62
2023/04/29 10:50:10;;;;;;;;;;;14.80;78.00;;;;;;5092598;28;20027;-62
2023/04/29 10:52:52;;;;;;;;;;;14.80;77.70;;;;;;5085597;28;19928;-62
2023/04/29 10:55:19;;;;;;;;;;;14.90;77.80;;;;;;5088716;28;19924;-63
2023/04/29 10:57:46;;;;;;;;;;;14.90;77.70;;;;;;5090360;28;20401;-61
2023/04/29 11:00:22;;;;;;;;;;;15.10;76.90;;;;;;5091050;28;19935;-62
2023/04/29 11:02:50;;;;;;;;;;;15.20;76.40;;;;;;5091233;28;20370;-62
2023/04/29 11:05:29;;;;;;;;;;;15.30;76.60;;;;;;5089903;28;19947;-63
2023/04/29 11:08:09;;;;;;;;;;;15.40;76.50;;;;;;5087578;28;19932;-62
2023/04/29 11:10:37;;;;;;;;;;;15.40;76.60;;;;;;5088321;28;19928;-62
2023/04/29 11:13:32;;;;;;;;;;;15.40;75.80;;;;;;5088487;28;19969;-60
2023/04/29 11:16:03;;;;;;;;;;;15.50;74.90;;;;;;5056061;28;20015;-62
2023/04/29 11:18:33;;;;;;;;;;;15.50;74.80;;;;;;5092122;28;19924;-62
2023/04/29 11:21:12;;;;;;;;;;;15.60;74.60;;;;;;5088005;28;19931;-62
2023/04/29 11:23:40;;;;;;;;;;;15.60;74.50;;;;;;5084091;28;19939;-60
2023/04/29 11:26:07;;;;;;;;;;;15.60;74.60;;;;;;5087748;28;19928;-62
2023/04/29 11:28:34;;;;;;;;;;;15.60;74.50;;;;;;5085559;28;19928;-63
2023/04/29 11:31:02;;;;;;;;;;;15.50;74.30;;;;;;5089908;28;19943;-60
2023/04/29 11:33:31;;;;;;;;;;;15.50;73.60;;;;;;5088765;28;20022;-62
2023/04/29 11:36:00;;;;;;;;;;;15.40;73.40;;;;;;5090704;28;19934;-62
2023/04/29 11:38:27;;;;;;;;;;;15.20;74.10;;;;;;5091020;28;19932;-63
2023/04/29 11:40:54;;;;;;;;;;;15.10;74.60;;;;;;5088372;28;19928;-60
2023/04/29 11:43:32;;;;;;;;;;;15.00;74.10;;;;;;5087117;28;20400;-63
2023/04/29 11:45:59;;;;;;;;;;;15.00;74.30;;;;;;5090389;28;20321;-61
2023/04/29 11:48:28;;;;;;;;;;;14.90;74.50;;;;;;5089542;28;19939;-63
2023/04/29 11:50:57;;;;;;;;;;;14.90;75.00;;;;;;5090714;28;20375;-62
2023/04/29 11:53:26;;;;;;;;;;;14.80;75.40;;;;;;5068495;28;19928;-62
2023/04/29 11:55:53;;;;;;;;;;;14.80;75.30;;;;;;5078301;28;19932;-61
2023/04/29 11:58:20;;;;;;;;;;;14.80;75.80;;;;;;5087066;28;19928;-61
2023/04/29 12:00:47;;;;;;;;;;;14.80;75.60;;;;;;5085285;28;19936;-62
2023/04/29 12:03:14;;;;;;;;;;;14.70;75.20;;;;;;5087781;28;19929;-61
2023/04/29 12:05:46;;;;;;;;;;;14.70;75.40;;;;;;5087446;28;19950;-61
2023/04/29 12:08:13;;;;;;;;;;;14.70;75.70;;;;;;5089601;28;19956;-62
2023/04/29 12:10:41;;;;;;;;;;;14.60;75.50;;;;;;5082287;28;20012;-61
2023/04/29 12:13:08;;;;;;;;;;;14.70;75.90;;;;;;5079015;28;19932;-62
2023/04/29 12:15:35;;;;;;;;;;;14.70;75.60;;;;;;5069626;28;20010;-62
2023/04/29 12:18:02;;;;;;;;;;;14.80;76.10;;;;;;5086570;28;20036;-61
2023/04/29 12:20:29;;;;;;;;;;;14.90;76.00;;;;;;5087917;28;20314;-62
2023/04/29 12:22:58;;;;;;;;;;;14.90;75.60;;;;;;5084301;28;19928;-62
2023/04/29 12:25:25;;;;;;;;;;;15.00;75.50;;;;;;5089095;28;19932;-61
2023/04/29 12:28:12;;;;;;;;;;;15.00;75.50;;;;;;5086850;28;19932;-62
2023/04/29 12:30:41;;;;;;;;;;;15.10;75.30;;;;;;5077269;28;19955;-62
2023/04/29 12:33:08;;;;;;;;;;;15.20;75.30;;;;;;5088188;28;19964;-60
2023/04/29 12:35:35;;;;;;;;;;;15.30;75.20;;;;;;5095412;28;19938;-61
2023/04/29 12:38:02;;;;;;;;;;;15.40;75.10;;;;;;5093013;28;19938;-62
2023/04/29 12:40:29;;;;;;;;;;;15.40;74.90;;;;;;5088310;28;20718;-61
2023/04/29 12:43:06;;;;;;;;;;;15.40;74.50;;;;;;5091759;28;19939;-61
2023/04/29 12:45:33;;;;;;;;;;;15.30;74.70;;;;;;5092259;28;19931;-61
2023/04/29 12:48:00;;;;;;;;;;;15.30;74.80;;;;;;5090774;28;19987;-61
2023/04/29 12:50:29;;;;;;;;;;;15.20;74.90;;;;;;5088705;28;20023;-62
2023/04/29 12:52:56;;;;;;;;;;;15.10;74.90;;;;;;5091046;28;19928;-61
2023/04/29 12:55:23;;;;;;;;;;;15.10;75.00;;;;;;5089235;28;19931;-63
2023/04/29 12:57:50;;;;;;;;;;;15.10;75.40;;;;;;5086268;28;19974;-62
2023/04/29 13:00:19;;;;;;;;;;;15.00;75.80;;;;;;5087523;28;20027;-62
2023/04/29 13:02:46;;;;;;;;;;;15.00;75.20;;;;;;5091228;28;19996;-62
2023/04/29 13:05:16;;;;;;;;;;;15.00;75.70;;;;;;5092298;28;19928;-63
2023/04/29 13:07:46;;;;;;;;;;;15.00;75.50;;;;;;5091459;28;20350;-62
2023/04/29 13:10:13;;;;;;;;;;;15.10;74.90;;;;;;5071570;28;19928;-62
2023/04/29 13:12:40;;;;;;;;;;;15.10;74.50;;;;;;5094092;28;19985;-61
2023/04/29 13:15:09;;;;;;;;;;;15.10;74.70;;;;;;5090367;28;19932;-62
2023/04/29 13:17:37;;;;;;;;;;;15.20;75.20;;;;;;5092161;28;19933;-62
2023/04/29 13:20:05;;;;;;;;;;;15.30;74.80;;;;;;5092629;28;19932;-62
2023/04/29 13:22:32;;;;;;;;;;;15.30;74.80;;;;;;5090924;28;19928;-62
2023/04/29 13:24:59;;;;;;;;;;;15.40;74.70;;;;;;5092010;28;19971;-62
2023/04/29 13:27:26;;;;;;;;;;;15.40;74.40;;;;;;5093395;28;20383;-62
2023/04/29 13:29:53;;;;;;;;;;;15.40;74.40;;;;;;5092835;28;20349;-62
2023/04/29 13:32:23;;;;;;;;;;;15.30;74.10;;;;;;5092771;28;19955;-61
2023/04/29 13:34:52;;;;;;;;;;;15.30;74.00;;;;;;5091234;28;19993;-62
2023/04/29 13:37:19;;;;;;;;;;;15.30;73.70;;;;;;5087712;28;20076;-62
2023/04/29 13:39:46;;;;;;;;;;;15.20;73.60;;;;;;5089107;28;19934;-62
2023/04/29 13:42:13;;;;;;;;;;;15.10;74.10;;;;;;5088483;28;19932;-62
2023/04/29 13:44:43;;;;;;;;;;;15.00;73.00;;;;;;5088902;28;19938;-61
2023/04/29 13:47:10;;;;;;;;;;;15.00;73.90;;;;;;5089309;28;19928;-61
2023/04/29 13:49:44;;;;;;;;;;;14.90;74.10;;;;;;5086156;28;19986;-61
2023/04/29 13:52:12;;;;;;;;;;;14.80;72.90;;;;;;5085701;28;20657;-62
2023/04/29 13:54:39;;;;;;;;;;;14.80;72.80;;;;;;5090068;28;19983;-61
2023/04/29 13:57:08;;;;;;;;;;;14.80;72.60;;;;;;5089691;28;19928;-63
2023/04/29 13:59:36;;;;;;;;;;;14.80;73.60;;;;;;5090829;28;19931;-62
2023/04/29 14:02:03;;;;;;;;;;;14.80;73.20;;;;;;5088664;28;19931;-61
2023/04/29 14:04:30;;;;;;;;;;;14.80;73.20;;;;;;5086820;28;19924;-61
2023/04/29 14:06:57;;;;;;;;;;;14.80;72.70;;;;;;5084548;28;19928;-63
2023/04/29 14:09:25;;;;;;;;;;;14.80;72.20;;;;;;5089282;28;19939;-62
2023/04/29 14:11:52;;;;;;;;;;;14.70;72.40;;;;;;5092054;28;19928;-62
2023/04/29 14:14:19;;;;;;;;;;;14.80;72.00;;;;;;5091413;28;19985;-62
2023/04/29 14:16:46;;;;;;;;;;;14.80;72.40;;;;;;5073706;28;19924;-62
2023/04/29 14:19:13;;;;;;;;;;;14.90;72.80;;;;;;5088910;28;19928;-63
2023/04/29 14:21:40;;;;;;;;;;;14.90;71.80;;;;;;5092783;28;20382;-61
2023/04/29 14:24:07;;;;;;;;;;;15.00;72.20;;;;;;5093091;28;19985;-62
2023/04/29 14:26:52;;;;;;;;;;;15.00;71.90;;;;;;5091501;28;19925;-60
2023/04/29 14:29:18;;;;;;;;;;;15.00;72.40;;;;;;5092567;28;19924;-62
2023/04/29 14:31:45;;;;;;;;;;;15.00;72.40;;;;;;5090993;28;20330;-62